sensor_id;sensor_type;location;lat;lon;timestamp;temperature;humidity
71801;HTU21D;59647;55.838;37.292;2023-02-25T00:01:20;0.51;88.93
71801;HTU21D;59647;55.838;37.292;2023-02-25T00:03:46;0.55;88.92
71801;HTU21D;59647;55.838;37.292;2023-02-25T00:06:13;0.54;88.92
71801;HTU21D;59647;55.838;37.292;2023-02-25T00:08:42;0.55;89.15
71801;HTU21D;59647;55.838;37.292;2023-02-25T00:11:08;0.58;88.72
71801;HTU21D;59647;55.838;37.292;2023-02-25T00:13:35;0.59;88.92
71801;HTU21D;59647;55.838;37.292;2023-02-25T00:16:04;0.58;88.82
71801;HTU21D;59647;55.838;37.292;2023-02-25T00:18:31;0.58;89.54
71801;HTU21D;59647;55.838;37.292;2023-02-25T00:20:58;0.60;88.81
71801;HTU21D;59647;55.838;37.292;2023-02-25T00:23:25;0.57;89.54
71801;HTU21D;59647;55.838;37.292;2023-02-25T00:26:03;0.57;89.98
71801;HTU21D;59647;55.838;37.292;2023-02-25T00:28:34;0.53;89.89
71801;HTU21D;59647;55.838;37.292;2023-02-25T00:31:05;0.58;89.55
71801;HTU21D;59647;55.838;37.292;2023-02-25T00:33:31;0.60;88.99
71801;HTU21D;59647;55.838;37.292;2023-02-25T00:35:57;0.61;88.96
71801;HTU21D;59647;55.838;37.292;2023-02-25T00:38:23;0.66;88.83
71801;HTU21D;59647;55.838;37.292;2023-02-25T00:40:48;0.66;89.66
71801;HTU21D;59647;55.838;37.292;2023-02-25T00:43:14;0.65;89.25
71801;HTU21D;59647;55.838;37.292;2023-02-25T00:45:41;0.67;89.50
71801;HTU21D;59647;55.838;37.292;2023-02-25T00:48:07;0.64;89.63
71801;HTU21D;59647;55.838;37.292;2023-02-25T00:50:35;0.62;89.84
71801;HTU21D;59647;55.838;37.292;2023-02-25T00:53:01;0.64;89.69
71801;HTU21D;59647;55.838;37.292;2023-02-25T00:55:26;0.63;89.90
71801;HTU21D;59647;55.838;37.292;2023-02-25T00:58:01;0.67;89.09
71801;HTU21D;59647;55.838;37.292;2023-02-25T01:00:28;0.74;89.27
71801;HTU21D;59647;55.838;37.292;2023-02-25T01:02:56;0.75;89.00
71801;HTU21D;59647;55.838;37.292;2023-02-25T01:05:23;0.73;89.23
71801;HTU21D;59647;55.838;37.292;2023-02-25T01:07:49;0.72;90.98
71801;HTU21D;59647;55.838;37.292;2023-02-25T01:10:15;0.72;89.65
71801;HTU21D;59647;55.838;37.292;2023-02-25T01:12:40;0.75;89.12
71801;HTU21D;59647;55.838;37.292;2023-02-25T01:15:07;0.78;88.83
71801;HTU21D;59647;55.838;37.292;2023-02-25T01:17:33;0.82;89.44
71801;HTU21D;59647;55.838;37.292;2023-02-25T01:20:02;0.81;89.05
71801;HTU21D;59647;55.838;37.292;2023-02-25T01:22:31;0.79;89.38
71801;HTU21D;59647;55.838;37.292;2023-02-25T01:24:58;0.80;89.86
71801;HTU21D;59647;55.838;37.292;2023-02-25T01:27:24;0.84;89.66
71801;HTU21D;59647;55.838;37.292;2023-02-25T01:29:50;0.84;88.88
71801;HTU21D;59647;55.838;37.292;2023-02-25T01:32:16;0.87;88.86
71801;HTU21D;59647;55.838;37.292;2023-02-25T01:34:42;0.87;88.65
71801;HTU21D;59647;55.838;37.292;2023-02-25T01:37:08;0.87;89.55
71801;HTU21D;59647;55.838;37.292;2023-02-25T01:39:38;0.88;89.07
71801;HTU21D;59647;55.838;37.292;2023-02-25T01:42:12;0.88;88.99
71801;HTU21D;59647;55.838;37.292;2023-02-25T01:47:50;0.94;88.77
71801;HTU21D;59647;55.838;37.292;2023-02-25T01:50:21;0.95;89.47
71801;HTU21D;59647;55.838;37.292;2023-02-25T01:52:49;0.92;88.76
71801;HTU21D;59647;55.838;37.292;2023-02-25T01:55:15;0.92;89.89
71801;HTU21D;59647;55.838;37.292;2023-02-25T01:57:41;0.91;89.39
71801;HTU21D;59647;55.838;37.292;2023-02-25T02:00:08;0.88;90.17
71801;HTU21D;59647;55.838;37.292;2023-02-25T02:02:42;0.88;89.66
71801;HTU21D;59647;55.838;37.292;2023-02-25T02:05:09;0.90;90.08
71801;HTU21D;59647;55.838;37.292;2023-02-25T02:07:35;0.92;90.02
71801;HTU21D;59647;55.838;37.292;2023-02-25T02:10:01;0.93;90.00
71801;HTU21D;59647;55.838;37.292;2023-02-25T02:12:31;0.93;89.58
71801;HTU21D;59647;55.838;37.292;2023-02-25T02:15:01;0.97;89.43
71801;HTU21D;59647;55.838;37.292;2023-02-25T02:34:32;0.97;89.80
71801;HTU21D;59647;55.838;37.292;2023-02-25T02:37:25;1.03;89.55
71801;HTU21D;59647;55.838;37.292;2023-02-25T02:40:02;1.05;89.25
71801;HTU21D;59647;55.838;37.292;2023-02-25T02:42:39;1.02;89.25
71801;HTU21D;59647;55.838;37.292;2023-02-25T02:48:02;1.05;89.12
71801;HTU21D;59647;55.838;37.292;2023-02-25T02:50:34;1.06;89.00
71801;HTU21D;59647;55.838;37.292;2023-02-25T02:53:06;1.08;88.87
71801;HTU21D;59647;55.838;37.292;2023-02-25T02:55:45;1.10;88.98
71801;HTU21D;59647;55.838;37.292;2023-02-25T02:58:16;1.07;89.02
71801;HTU21D;59647;55.838;37.292;2023-02-25T03:00:46;1.11;89.00
71801;HTU21D;59647;55.838;37.292;2023-02-25T03:03:19;1.11;89.41
71801;HTU21D;59647;55.838;37.292;2023-02-25T03:05:49;1.11;89.43
71801;HTU21D;59647;55.838;37.292;2023-02-25T03:08:23;1.09;89.82
71801;HTU21D;59647;55.838;37.292;2023-02-25T03:10:49;1.08;90.58
71801;HTU21D;59647;55.838;37.292;2023-02-25T03:13:16;1.06;90.63
71801;HTU21D;59647;55.838;37.292;2023-02-25T03:15:43;1.07;90.18
71801;HTU21D;59647;55.838;37.292;2023-02-25T03:18:21;1.13;89.88
71801;HTU21D;59647;55.838;37.292;2023-02-25T03:20:49;1.13;90.90
71801;HTU21D;59647;55.838;37.292;2023-02-25T03:23:22;1.13;90.69
71801;HTU21D;59647;55.838;37.292;2023-02-25T03:25:51;1.13;90.53
71801;HTU21D;59647;55.838;37.292;2023-02-25T03:33:42;1.16;90.88
71801;HTU21D;59647;55.838;37.292;2023-02-25T03:36:18;1.13;91.08
71801;HTU21D;59647;55.838;37.292;2023-02-25T03:38:48;1.12;90.56
71801;HTU21D;59647;55.838;37.292;2023-02-25T03:41:16;1.14;90.42
71801;HTU21D;59647;55.838;37.292;2023-02-25T03:43:45;1.21;90.18
71801;HTU21D;59647;55.838;37.292;2023-02-25T03:46:14;1.26;89.96
71801;HTU21D;59647;55.838;37.292;2023-02-25T03:48:42;1.26;90.32
71801;HTU21D;59647;55.838;37.292;2023-02-25T03:51:14;1.26;90.12
71801;HTU21D;59647;55.838;37.292;2023-02-25T03:53:42;1.29;89.78
71801;HTU21D;59647;55.838;37.292;2023-02-25T03:56:16;1.35;89.51
71801;HTU21D;59647;55.838;37.292;2023-02-25T03:58:43;1.36;89.44
71801;HTU21D;59647;55.838;37.292;2023-02-25T04:01:22;1.35;89.77
71801;HTU21D;59647;55.838;37.292;2023-02-25T04:03:49;1.37;89.44
71801;HTU21D;59647;55.838;37.292;2023-02-25T04:06:20;1.41;89.04
71801;HTU21D;59647;55.838;37.292;2023-02-25T04:08:49;1.48;88.73
71801;HTU21D;59647;55.838;37.292;2023-02-25T04:11:14;1.50;88.60
71801;HTU21D;59647;55.838;37.292;2023-02-25T04:13:42;1.46;89.79
71801;HTU21D;59647;55.838;37.292;2023-02-25T04:16:08;1.42;89.80
71801;HTU21D;59647;55.838;37.292;2023-02-25T04:18:34;1.43;89.27
71801;HTU21D;59647;55.838;37.292;2023-02-25T04:21:04;1.46;89.89
71801;HTU21D;59647;55.838;37.292;2023-02-25T04:23:31;1.43;89.49
71801;HTU21D;59647;55.838;37.292;2023-02-25T04:25:57;1.48;89.58
71801;HTU21D;59647;55.838;37.292;2023-02-25T04:28:22;1.47;89.66
71801;HTU21D;59647;55.838;37.292;2023-02-25T04:30:48;1.47;90.07
71801;HTU21D;59647;55.838;37.292;2023-02-25T04:33:14;1.42;90.87
71801;HTU21D;59647;55.838;37.292;2023-02-25T04:35:40;1.41;90.30
71801;HTU21D;59647;55.838;37.292;2023-02-25T04:38:06;1.45;90.15
71801;HTU21D;59647;55.838;37.292;2023-02-25T04:40:32;1.51;90.05
71801;HTU21D;59647;55.838;37.292;2023-02-25T04:42:57;1.55;89.61
71801;HTU21D;59647;55.838;37.292;2023-02-25T04:45:23;1.56;89.78
71801;HTU21D;59647;55.838;37.292;2023-02-25T04:47:54;1.57;89.87
71801;HTU21D;59647;55.838;37.292;2023-02-25T04:50:23;1.57;90.54
71801;HTU21D;59647;55.838;37.292;2023-02-25T04:52:49;1.58;89.78
71801;HTU21D;59647;55.838;37.292;2023-02-25T04:55:15;1.67;89.70
71801;HTU21D;59647;55.838;37.292;2023-02-25T04:57:41;1.71;89.47
71801;HTU21D;59647;55.838;37.292;2023-02-25T05:00:17;1.76;89.66
71801;HTU21D;59647;55.838;37.292;2023-02-25T05:02:46;1.80;89.43
71801;HTU21D;59647;55.838;37.292;2023-02-25T05:05:12;1.81;89.34
71801;HTU21D;59647;55.838;37.292;2023-02-25T05:07:38;1.83;89.31
71801;HTU21D;59647;55.838;37.292;2023-02-25T05:10:05;1.91;89.21
71801;HTU21D;59647;55.838;37.292;2023-02-25T05:12:32;1.92;89.53
71801;HTU21D;59647;55.838;37.292;2023-02-25T05:14:57;1.91;90.06
71801;HTU21D;59647;55.838;37.292;2023-02-25T05:17:23;1.90;90.82
71801;HTU21D;59647;55.838;37.292;2023-02-25T05:19:49;1.91;90.29
71801;HTU21D;59647;55.838;37.292;2023-02-25T05:22:15;1.92;91.15
71801;HTU21D;59647;55.838;37.292;2023-02-25T05:24:41;1.91;90.89
71801;HTU21D;59647;55.838;37.292;2023-02-25T05:27:07;1.95;90.48
71801;HTU21D;59647;55.838;37.292;2023-02-25T05:29:36;2.00;90.37
71801;HTU21D;59647;55.838;37.292;2023-02-25T05:32:02;2.05;90.45
71801;HTU21D;59647;55.838;37.292;2023-02-25T05:34:28;2.06;90.36
71801;HTU21D;59647;55.838;37.292;2023-02-25T05:36:54;2.09;90.20
71801;HTU21D;59647;55.838;37.292;2023-02-25T05:39:19;2.15;90.31
71801;HTU21D;59647;55.838;37.292;2023-02-25T05:41:45;2.19;89.87
71801;HTU21D;59647;55.838;37.292;2023-02-25T05:44:11;2.23;90.20
71801;HTU21D;59647;55.838;37.292;2023-02-25T05:46:37;2.22;90.21
71801;HTU21D;59647;55.838;37.292;2023-02-25T05:49:03;2.23;90.31
71801;HTU21D;59647;55.838;37.292;2023-02-25T05:51:28;2.26;90.28
71801;HTU21D;59647;55.838;37.292;2023-02-25T05:53:55;2.27;90.73
71801;HTU21D;59647;55.838;37.292;2023-02-25T05:56:23;2.29;90.58
71801;HTU21D;59647;55.838;37.292;2023-02-25T05:58:50;2.30;90.41
71801;HTU21D;59647;55.838;37.292;2023-02-25T06:01:19;2.36;89.92
71801;HTU21D;59647;55.838;37.292;2023-02-25T06:03:48;2.41;90.11
71801;HTU21D;59647;55.838;37.292;2023-02-25T06:06:18;2.46;89.73
71801;HTU21D;59647;55.838;37.292;2023-02-25T06:08:47;2.47;89.88
71801;HTU21D;59647;55.838;37.292;2023-02-25T06:11:27;2.51;89.97
71801;HTU21D;59647;55.838;37.292;2023-02-25T06:13:54;2.60;89.97
71801;HTU21D;59647;55.838;37.292;2023-02-25T06:16:21;2.62;90.14
71801;HTU21D;59647;55.838;37.292;2023-02-25T06:18:50;2.70;90.07
71801;HTU21D;59647;55.838;37.292;2023-02-25T06:21:16;2.72;89.95
71801;HTU21D;59647;55.838;37.292;2023-02-25T06:23:43;2.80;89.88
71801;HTU21D;59647;55.838;37.292;2023-02-25T06:26:11;2.86;89.63
71801;HTU21D;59647;55.838;37.292;2023-02-25T06:28:38;2.93;89.49
71801;HTU21D;59647;55.838;37.292;2023-02-25T06:31:12;3.01;89.83
71801;HTU21D;59647;55.838;37.292;2023-02-25T06:33:39;3.00;90.00
71801;HTU21D;59647;55.838;37.292;2023-02-25T06:36:05;3.01;89.89
71801;HTU21D;59647;55.838;37.292;2023-02-25T06:38:32;3.01;90.53
71801;HTU21D;59647;55.838;37.292;2023-02-25T06:40:58;2.99;90.25
71801;HTU21D;59647;55.838;37.292;2023-02-25T06:43:24;3.00;90.02
71801;HTU21D;59647;55.838;37.292;2023-02-25T06:45:50;3.03;89.66
71801;HTU21D;59647;55.838;37.292;2023-02-25T06:48:16;3.02;90.54
71801;HTU21D;59647;55.838;37.292;2023-02-25T06:50:42;3.06;89.84
71801;HTU21D;59647;55.838;37.292;2023-02-25T06:53:08;3.13;89.66
71801;HTU21D;59647;55.838;37.292;2023-02-25T06:55:34;3.21;89.00
71801;HTU21D;59647;55.838;37.292;2023-02-25T06:58:00;3.31;89.08
71801;HTU21D;59647;55.838;37.292;2023-02-25T07:00:25;3.43;89.30
71801;HTU21D;59647;55.838;37.292;2023-02-25T07:02:51;3.48;89.18
71801;HTU21D;59647;55.838;37.292;2023-02-25T07:05:17;3.53;90.27
71801;HTU21D;59647;55.838;37.292;2023-02-25T07:07:43;3.58;89.18
71801;HTU21D;59647;55.838;37.292;2023-02-25T07:10:10;3.63;89.07
71801;HTU21D;59647;55.838;37.292;2023-02-25T07:12:36;3.72;89.60
71801;HTU21D;59647;55.838;37.292;2023-02-25T07:15:02;3.80;89.83
71801;HTU21D;59647;55.838;37.292;2023-02-25T07:17:28;3.91;89.78
71801;HTU21D;59647;55.838;37.292;2023-02-25T07:19:54;4.00;89.65
71801;HTU21D;59647;55.838;37.292;2023-02-25T07:22:20;4.05;88.99
71801;HTU21D;59647;55.838;37.292;2023-02-25T07:24:46;4.13;88.89
71801;HTU21D;59647;55.838;37.292;2023-02-25T07:27:12;4.23;88.50
71801;HTU21D;59647;55.838;37.292;2023-02-25T07:29:39;4.33;87.87
71801;HTU21D;59647;55.838;37.292;2023-02-25T07:32:05;4.35;87.81
71801;HTU21D;59647;55.838;37.292;2023-02-25T07:34:34;4.35;88.14
71801;HTU21D;59647;55.838;37.292;2023-02-25T07:37:00;4.36;87.99
71801;HTU21D;59647;55.838;37.292;2023-02-25T07:39:26;4.41;87.94
71801;HTU21D;59647;55.838;37.292;2023-02-25T07:41:52;4.50;87.69
71801;HTU21D;59647;55.838;37.292;2023-02-25T07:44:19;4.59;87.54
71801;HTU21D;59647;55.838;37.292;2023-02-25T07:46:44;4.63;87.22
71801;HTU21D;59647;55.838;37.292;2023-02-25T07:49:10;4.67;87.28
71801;HTU21D;59647;55.838;37.292;2023-02-25T07:51:36;4.72;87.48
71801;HTU21D;59647;55.838;37.292;2023-02-25T07:54:02;4.72;87.54
71801;HTU21D;59647;55.838;37.292;2023-02-25T07:56:29;4.72;87.54
71801;HTU21D;59647;55.838;37.292;2023-02-25T07:58:55;4.71;87.30
71801;HTU21D;59647;55.838;37.292;2023-02-25T08:03:54;4.67;87.54
71801;HTU21D;59647;55.838;37.292;2023-02-25T08:06:20;4.65;87.66
71801;HTU21D;59647;55.838;37.292;2023-02-25T08:08:46;4.65;87.77
71801;HTU21D;59647;55.838;37.292;2023-02-25T08:11:15;4.66;87.83
71801;HTU21D;59647;55.838;37.292;2023-02-25T08:13:41;4.67;87.49
71801;HTU21D;59647;55.838;37.292;2023-02-25T08:16:09;4.68;87.61
71801;HTU21D;59647;55.838;37.292;2023-02-25T08:18:36;4.72;87.49
71801;HTU21D;59647;55.838;37.292;2023-02-25T08:21:02;4.71;87.98
71801;HTU21D;59647;55.838;37.292;2023-02-25T08:23:29;4.71;88.16
71801;HTU21D;59647;55.838;37.292;2023-02-25T08:25:56;4.77;87.51
71801;HTU21D;59647;55.838;37.292;2023-02-25T08:28:23;4.81;87.21
71801;HTU21D;59647;55.838;37.292;2023-02-25T08:30:51;4.80;87.25
71801;HTU21D;59647;55.838;37.292;2023-02-25T08:33:17;4.73;87.77
71801;HTU21D;59647;55.838;37.292;2023-02-25T08:35:43;4.78;87.61
71801;HTU21D;59647;55.838;37.292;2023-02-25T08:38:09;4.88;88.28
71801;HTU21D;59647;55.838;37.292;2023-02-25T08:40:38;4.87;88.32
71801;HTU21D;59647;55.838;37.292;2023-02-25T08:43:05;4.86;87.99
71801;HTU21D;59647;55.838;37.292;2023-02-25T08:45:30;4.93;88.53
71801;HTU21D;59647;55.838;37.292;2023-02-25T08:47:56;5.02;87.74
71801;HTU21D;59647;55.838;37.292;2023-02-25T08:50:22;5.09;87.56
71801;HTU21D;59647;55.838;37.292;2023-02-25T08:52:49;5.15;87.83
71801;HTU21D;59647;55.838;37.292;2023-02-25T08:55:15;5.24;87.54
71801;HTU21D;59647;55.838;37.292;2023-02-25T08:57:41;5.28;87.39
71801;HTU21D;59647;55.838;37.292;2023-02-25T09:00:11;5.31;87.06
71801;HTU21D;59647;55.838;37.292;2023-02-25T09:02:39;5.36;85.97
71801;HTU21D;59647;55.838;37.292;2023-02-25T09:05:06;5.40;86.75
71801;HTU21D;59647;55.838;37.292;2023-02-25T09:07:32;5.45;86.19
71801;HTU21D;59647;55.838;37.292;2023-02-25T09:09:57;5.48;86.32
71801;HTU21D;59647;55.838;37.292;2023-02-25T09:12:25;5.51;86.46
71801;HTU21D;59647;55.838;37.292;2023-02-25T09:14:51;5.46;86.47
71801;HTU21D;59647;55.838;37.292;2023-02-25T09:17:17;5.40;86.69
71801;HTU21D;59647;55.838;37.292;2023-02-25T09:19:43;5.36;86.59
71801;HTU21D;59647;55.838;37.292;2023-02-25T09:22:09;5.36;87.05
71801;HTU21D;59647;55.838;37.292;2023-02-25T09:24:35;5.35;87.09
71801;HTU21D;59647;55.838;37.292;2023-02-25T09:27:02;5.36;87.03
71801;HTU21D;59647;55.838;37.292;2023-02-25T09:29:35;5.40;86.94
71801;HTU21D;59647;55.838;37.292;2023-02-25T09:32:02;5.43;86.67
71801;HTU21D;59647;55.838;37.292;2023-02-25T09:34:27;5.47;86.66
71801;HTU21D;59647;55.838;37.292;2023-02-25T09:36:53;5.48;86.61
71801;HTU21D;59647;55.838;37.292;2023-02-25T09:39:19;5.41;86.61
71801;HTU21D;59647;55.838;37.292;2023-02-25T09:41:52;5.43;86.72
71801;HTU21D;59647;55.838;37.292;2023-02-25T09:44:23;5.48;86.85
71801;HTU21D;59647;55.838;37.292;2023-02-25T09:46:56;5.50;86.61
71801;HTU21D;59647;55.838;37.292;2023-02-25T09:49:30;5.45;86.74
71801;HTU21D;59647;55.838;37.292;2023-02-25T09:52:14;5.45;86.58
71801;HTU21D;59647;55.838;37.292;2023-02-25T09:54:45;5.43;86.70
71801;HTU21D;59647;55.838;37.292;2023-02-25T09:57:16;5.45;86.70
71801;HTU21D;59647;55.838;37.292;2023-02-25T09:59:48;5.47;86.64
71801;HTU21D;59647;55.838;37.292;2023-02-25T10:05:45;5.51;86.38
71801;HTU21D;59647;55.838;37.292;2023-02-25T10:11:06;5.50;86.95
71801;HTU21D;59647;55.838;37.292;2023-02-25T10:19:34;5.64;86.64
71801;HTU21D;59647;55.838;37.292;2023-02-25T10:22:28;5.62;86.76
71801;HTU21D;59647;55.838;37.292;2023-02-25T10:25:13;5.53;86.82
71801;HTU21D;59647;55.838;37.292;2023-02-25T10:28:19;5.53;86.90
71801;HTU21D;59647;55.838;37.292;2023-02-25T10:30:58;5.60;86.94
71801;HTU21D;59647;55.838;37.292;2023-02-25T10:33:29;5.61;86.75
71801;HTU21D;59647;55.838;37.292;2023-02-25T10:36:08;5.72;86.44
71801;HTU21D;59647;55.838;37.292;2023-02-25T10:38:38;5.83;86.24
71801;HTU21D;59647;55.838;37.292;2023-02-25T10:41:06;5.86;86.18
71801;HTU21D;59647;55.838;37.292;2023-02-25T10:43:33;5.90;85.98
71801;HTU21D;59647;55.838;37.292;2023-02-25T10:48:43;5.87;86.17
71801;HTU21D;59647;55.838;37.292;2023-02-25T10:51:14;5.81;86.41
71801;HTU21D;59647;55.838;37.292;2023-02-25T10:54:04;5.83;86.43
71801;HTU21D;59647;55.838;37.292;2023-02-25T10:56:37;5.82;86.32
71801;HTU21D;59647;55.838;37.292;2023-02-25T11:01:49;5.97;86.69
71801;HTU21D;59647;55.838;37.292;2023-02-25T11:04:19;6.02;86.45
71801;HTU21D;59647;55.838;37.292;2023-02-25T11:06:45;6.04;86.26
71801;HTU21D;59647;55.838;37.292;2023-02-25T11:12:15;5.91;86.54
71801;HTU21D;59647;55.838;37.292;2023-02-25T11:14:43;5.85;86.75
71801;HTU21D;59647;55.838;37.292;2023-02-25T11:19:42;5.79;87.10
71801;HTU21D;59647;55.838;37.292;2023-02-25T11:22:28;5.78;87.36
71801;HTU21D;59647;55.838;37.292;2023-02-25T11:25:06;5.75;87.55
71801;HTU21D;59647;55.838;37.292;2023-02-25T11:27:42;5.67;87.43
71801;HTU21D;59647;55.838;37.292;2023-02-25T11:32:49;5.70;87.67
71801;HTU21D;59647;55.838;37.292;2023-02-25T11:35:30;5.74;87.52
71801;HTU21D;59647;55.838;37.292;2023-02-25T11:38:23;5.72;87.74
71801;HTU21D;59647;55.838;37.292;2023-02-25T11:40:50;5.75;87.17
71801;HTU21D;59647;55.838;37.292;2023-02-25T11:45:58;5.71;87.27
71801;HTU21D;59647;55.838;37.292;2023-02-25T11:48:48;5.64;87.83
71801;HTU21D;59647;55.838;37.292;2023-02-25T11:51:22;5.60;88.65
71801;HTU21D;59647;55.838;37.292;2023-02-25T11:54:01;5.55;88.82
71801;HTU21D;59647;55.838;37.292;2023-02-25T11:59:36;5.49;88.54
71801;HTU21D;59647;55.838;37.292;2023-02-25T12:27:34;5.50;88.97
71801;HTU21D;59647;55.838;37.292;2023-02-25T12:30:33;5.50;88.55
71801;HTU21D;59647;55.838;37.292;2023-02-25T12:33:26;5.48;88.88
71801;HTU21D;59647;55.838;37.292;2023-02-25T12:41:39;5.52;88.83
71801;HTU21D;59647;55.838;37.292;2023-02-25T12:44:18;5.50;88.50
71801;HTU21D;59647;55.838;37.292;2023-02-25T13:15:04;5.21;90.95
71801;HTU21D;59647;55.838;37.292;2023-02-25T13:23:32;5.15;90.76
71801;HTU21D;59647;55.838;37.292;2023-02-25T13:31:59;5.04;92.26
71801;HTU21D;59647;55.838;37.292;2023-02-25T13:40:29;5.04;92.23
71801;HTU21D;59647;55.838;37.292;2023-02-25T13:45:39;5.03;93.16
71801;HTU21D;59647;55.838;37.292;2023-02-25T14:05:02;4.86;94.73
71801;HTU21D;59647;55.838;37.292;2023-02-25T14:07:46;4.88;93.50
71801;HTU21D;59647;55.838;37.292;2023-02-25T14:19:21;4.81;94.64
71801;HTU21D;59647;55.838;37.292;2023-02-25T14:42:11;4.78;94.78
71801;HTU21D;59647;55.838;37.292;2023-02-25T14:48:05;4.81;95.04
71801;HTU21D;59647;55.838;37.292;2023-02-25T15:07:36;4.75;96.14
71801;HTU21D;59647;55.838;37.292;2023-02-25T15:12:46;4.65;97.88
71801;HTU21D;59647;55.838;37.292;2023-02-25T15:15:32;4.68;95.84
71801;HTU21D;59647;55.838;37.292;2023-02-25T15:18:18;4.68;96.39
71801;HTU21D;59647;55.838;37.292;2023-02-25T15:20:46;4.64;96.47
71801;HTU21D;59647;55.838;37.292;2023-02-25T15:23:14;4.65;95.83
71801;HTU21D;59647;55.838;37.292;2023-02-25T15:25:44;4.68;96.01
71801;HTU21D;59647;55.838;37.292;2023-02-25T15:33:42;4.59;97.12
71801;HTU21D;59647;55.838;37.292;2023-02-25T15:38:44;4.59;96.91
71801;HTU21D;59647;55.838;37.292;2023-02-25T15:51:51;4.60;97.40
71801;HTU21D;59647;55.838;37.292;2023-02-25T15:57:03;4.56;97.78
71801;HTU21D;59647;55.838;37.292;2023-02-25T15:59:50;4.56;97.45
71801;HTU21D;59647;55.838;37.292;2023-02-25T16:04:53;4.60;96.50
71801;HTU21D;59647;55.838;37.292;2023-02-25T16:07:21;4.58;98.19
71801;HTU21D;59647;55.838;37.292;2023-02-25T16:09:56;4.56;98.18
71801;HTU21D;59647;55.838;37.292;2023-02-25T16:12:23;4.54;98.39
71801;HTU21D;59647;55.838;37.292;2023-02-25T16:14:51;4.56;98.35
71801;HTU21D;59647;55.838;37.292;2023-02-25T16:17:26;4.56;98.42
71801;HTU21D;59647;55.838;37.292;2023-02-25T16:19:56;4.53;98.68
71801;HTU21D;59647;55.838;37.292;2023-02-25T16:22:27;4.53;98.11
71801;HTU21D;59647;55.838;37.292;2023-02-25T16:24:56;4.54;97.58
71801;HTU21D;59647;55.838;37.292;2023-02-25T16:35:41;4.47;99.53
71801;HTU21D;59647;55.838;37.292;2023-02-25T16:40:40;4.49;97.93
71801;HTU21D;59647;55.838;37.292;2023-02-25T16:43:21;4.52;98.13
71801;HTU21D;59647;55.838;37.292;2023-02-25T16:45:59;4.45;100.18
71801;HTU21D;59647;55.838;37.292;2023-02-25T16:48:50;4.48;98.10
71801;HTU21D;59647;55.838;37.292;2023-02-25T16:54:32;4.50;98.05
71801;HTU21D;59647;55.838;37.292;2023-02-25T16:57:01;4.49;97.42
71801;HTU21D;59647;55.838;37.292;2023-02-25T16:59:33;4.49;98.39
71801;HTU21D;59647;55.838;37.292;2023-02-25T17:05:37;4.46;98.93
71801;HTU21D;59647;55.838;37.292;2023-02-25T17:08:05;4.35;101.09
71801;HTU21D;59647;55.838;37.292;2023-02-25T17:10:35;4.28;101.18
71801;HTU21D;59647;55.838;37.292;2023-02-25T17:13:13;4.32;99.45
71801;HTU21D;59647;55.838;37.292;2023-02-25T17:15:40;4.34;99.06
71801;HTU21D;59647;55.838;37.292;2023-02-25T17:18:22;4.31;100.77
71801;HTU21D;59647;55.838;37.292;2023-02-25T17:21:01;4.32;99.93
71801;HTU21D;59647;55.838;37.292;2023-02-25T17:23:28;4.33;99.45
71801;HTU21D;59647;55.838;37.292;2023-02-25T17:25:57;4.32;99.80
71801;HTU21D;59647;55.838;37.292;2023-02-25T17:28:26;4.35;98.77
71801;HTU21D;59647;55.838;37.292;2023-02-25T17:33:30;4.27;100.30
71801;HTU21D;59647;55.838;37.292;2023-02-25T17:36:18;4.30;99.55
71801;HTU21D;59647;55.838;37.292;2023-02-25T17:38:45;4.30;98.71
71801;HTU21D;59647;55.838;37.292;2023-02-25T17:41:17;4.28;99.71
71801;HTU21D;59647;55.838;37.292;2023-02-25T17:43:43;4.26;99.63
71801;HTU21D;59647;55.838;37.292;2023-02-25T17:46:31;4.29;99.74
71801;HTU21D;59647;55.838;37.292;2023-02-25T17:49:26;4.17;100.43
71801;HTU21D;59647;55.838;37.292;2023-02-25T17:52:36;4.05;101.60
71801;HTU21D;59647;55.838;37.292;2023-02-25T17:55:23;4.02;101.70
71801;HTU21D;59647;55.838;37.292;2023-02-25T17:57:52;4.00;101.89
71801;HTU21D;59647;55.838;37.292;2023-02-25T18:00:39;4.02;101.56
71801;HTU21D;59647;55.838;37.292;2023-02-25T18:03:19;4.07;101.20
71801;HTU21D;59647;55.838;37.292;2023-02-25T18:08:56;4.14;100.33
71801;HTU21D;59647;55.838;37.292;2023-02-25T18:11:28;4.14;100.05
71801;HTU21D;59647;55.838;37.292;2023-02-25T18:14:18;4.09;100.87
71801;HTU21D;59647;55.838;37.292;2023-02-25T18:16:46;4.12;100.56
71801;HTU21D;59647;55.838;37.292;2023-02-25T18:19:30;4.15;100.00
71801;HTU21D;59647;55.838;37.292;2023-02-25T18:21:57;4.16;99.43
71801;HTU21D;59647;55.838;37.292;2023-02-25T18:24:35;4.16;100.06
71801;HTU21D;59647;55.838;37.292;2023-02-25T18:29:39;4.15;100.22
71801;HTU21D;59647;55.838;37.292;2023-02-25T18:32:05;4.19;99.12
71801;HTU21D;59647;55.838;37.292;2023-02-25T18:34:31;4.14;100.62
71801;HTU21D;59647;55.838;37.292;2023-02-25T18:36:57;4.15;99.83
71801;HTU21D;59647;55.838;37.292;2023-02-25T18:39:24;4.14;100.56
71801;HTU21D;59647;55.838;37.292;2023-02-25T18:41:51;4.14;100.29
71801;HTU21D;59647;55.838;37.292;2023-02-25T18:44:17;4.17;99.53
71801;HTU21D;59647;55.838;37.292;2023-02-25T18:46:43;4.19;99.41
71801;HTU21D;59647;55.838;37.292;2023-02-25T18:49:09;4.19;99.44
71801;HTU21D;59647;55.838;37.292;2023-02-25T18:51:38;4.21;98.62
71801;HTU21D;59647;55.838;37.292;2023-02-25T18:54:04;4.22;99.31
71801;HTU21D;59647;55.838;37.292;2023-02-25T18:56:30;4.21;98.63
71801;HTU21D;59647;55.838;37.292;2023-02-25T18:58:55;4.18;99.86
71801;HTU21D;59647;55.838;37.292;2023-02-25T19:01:24;4.16;99.82
71801;HTU21D;59647;55.838;37.292;2023-02-25T19:03:51;4.15;99.81
71801;HTU21D;59647;55.838;37.292;2023-02-25T19:06:18;4.16;99.47
71801;HTU21D;59647;55.838;37.292;2023-02-25T19:08:44;4.19;99.05
71801;HTU21D;59647;55.838;37.292;2023-02-25T19:11:22;4.23;99.32
71801;HTU21D;59647;55.838;37.292;2023-02-25T19:13:49;4.17;99.93
71801;HTU21D;59647;55.838;37.292;2023-02-25T19:16:15;4.12;100.29
71801;HTU21D;59647;55.838;37.292;2023-02-25T19:18:41;4.01;102.15
71801;HTU21D;59647;55.838;37.292;2023-02-25T19:21:12;3.97;101.82
71801;HTU21D;59647;55.838;37.292;2023-02-25T19:23:39;3.97;101.54
71801;HTU21D;59647;55.838;37.292;2023-02-25T19:26:05;3.86;103.56
71801;HTU21D;59647;55.838;37.292;2023-02-25T19:28:30;3.88;103.10
71801;HTU21D;59647;55.838;37.292;2023-02-25T19:30:56;3.86;103.05
71801;HTU21D;59647;55.838;37.292;2023-02-25T19:33:22;3.90;102.51
71801;HTU21D;59647;55.838;37.292;2023-02-25T19:35:48;3.93;102.15
71801;HTU21D;59647;55.838;37.292;2023-02-25T19:38:16;3.92;102.28
71801;HTU21D;59647;55.838;37.292;2023-02-25T19:40:43;3.90;103.12
71801;HTU21D;59647;55.838;37.292;2023-02-25T19:43:09;3.95;102.18
71801;HTU21D;59647;55.838;37.292;2023-02-25T19:45:35;3.91;102.83
71801;HTU21D;59647;55.838;37.292;2023-02-25T19:48:01;3.93;102.15
71801;HTU21D;59647;55.838;37.292;2023-02-25T19:50:28;3.93;102.92
71801;HTU21D;59647;55.838;37.292;2023-02-25T19:52:56;3.83;103.66